sensor_id;sensor_type;location;lat;lon;timestamp;pressure;altitude;pressure_sealevel;temperature;humidity
54994;BME280;40891;47.242;8.648;2022-11-11T00:02:21;97705.75;;;9.99;100.00
54994;BME280;40891;47.242;8.648;2022-11-11T00:04:46;97710.44;;;10.05;100.00
54994;BME280;40891;47.242;8.648;2022-11-11T00:07:12;97708.44;;;10.06;100.00
54994;BME280;40891;47.242;8.648;2022-11-11T00:09:37;97698.78;;;10.17;100.00
54994;BME280;40891;47.242;8.648;2022-11-11T00:12:02;97694.28;;;10.27;100.00
54994;BME280;40891;47.242;8.648;2022-11-11T00:14:28;97704.22;;;10.28;100.00
54994;BME280;40891;47.242;8.648;2022-11-11T00:16:53;97705.00;;;10.29;100.00
54994;BME280;40891;47.242;8.648;2022-11-11T00:19:37;97695.88;;;10.28;100.00
54994;BME280;40891;47.242;8.648;2022-11-11T00:22:21;97704.56;;;10.30;100.00
54994;BME280;40891;47.242;8.648;2022-11-11T00:25:06;97691.78;;;10.36;100.00
54994;BME280;40891;47.242;8.648;2022-11-11T00:27:32;97701.69;;;10.37;100.00
54994;BME280;40891;47.242;8.648;2022-11-11T00:29:58;97704.38;;;10.44;100.00
54994;BME280;40891;47.242;8.648;2022-11-11T00:32:23;97708.38;;;10.43;100.00
54994;BME280;40891;47.242;8.648;2022-11-11T00:34:55;97709.03;;;10.51;100.00
54994;BME280;40891;47.242;8.648;2022-11-11T00:37:39;97716.66;;;10.47;100.00
54994;BME280;40891;47.242;8.648;2022-11-11T00:40:05;97711.41;;;10.52;100.00
54994;BME280;40891;47.242;8.648;2022-11-11T00:42:31;97714.19;;;10.52;100.00
54994;BME280;40891;47.242;8.648;2022-11-11T00:44:57;97720.00;;;10.61;100.00
54994;BME280;40891;47.242;8.648;2022-11-11T00:47:22;97719.22;;;10.61;100.00
54994;BME280;40891;47.242;8.648;2022-11-11T00:50:12;97719.66;;;10.59;100.00
54994;BME280;40891;47.242;8.648;2022-11-11T00:52:56;97713.97;;;10.66;100.00
54994;BME280;40891;47.242;8.648;2022-11-11T00:55:21;97719.09;;;10.68;100.00
54994;BME280;40891;47.242;8.648;2022-11-11T00:57:47;97712.75;;;10.67;100.00
54994;BME280;40891;47.242;8.648;2022-11-11T01:00:12;97708.81;;;10.65;100.00
54994;BME280;40891;47.242;8.648;2022-11-11T01:02:38;97708.81;;;10.65;100.00
54994;BME280;40891;47.242;8.648;2022-11-11T01:05:04;97714.00;;;10.63;100.00
54994;BME280;40891;47.242;8.648;2022-11-11T01:07:29;97704.13;;;10.62;100.00
54994;BME280;40891;47.242;8.648;2022-11-11T01:09:54;97704.84;;;10.66;100.00
54994;BME280;40891;47.242;8.648;2022-11-11T01:12:20;97717.47;;;10.70;100.00
54994;BME280;40891;47.242;8.648;2022-11-11T01:14:45;97710.38;;;10.69;100.00
54994;BME280;40891;47.242;8.648;2022-11-11T01:17:11;97712.00;;;10.67;100.00
54994;BME280;40891;47.242;8.648;2022-11-11T01:19:36;97716.75;;;10.66;100.00
54994;BME280;40891;47.242;8.648;2022-11-11T01:22:02;97721.97;;;10.64;100.00
54994;BME280;40891;47.242;8.648;2022-11-11T01:24:27;97717.56;;;10.67;100.00
54994;BME280;40891;47.242;8.648;2022-11-11T01:26:52;97723.38;;;10.76;100.00
54994;BME280;40891;47.242;8.648;2022-11-11T01:29:18;97720.13;;;10.81;100.00
54994;BME280;40891;47.242;8.648;2022-11-11T01:31:43;97722.41;;;10.86;100.00
54994;BME280;40891;47.242;8.648;2022-11-11T01:34:09;97718.09;;;10.81;100.00
54994;BME280;40891;47.242;8.648;2022-11-11T01:36:34;97722.03;;;10.84;100.00
54994;BME280;40891;47.242;8.648;2022-11-11T01:39:00;97701.78;;;10.83;100.00
54994;BME280;40891;47.242;8.648;2022-11-11T01:41:30;97698.63;;;10.81;100.00
54994;BME280;40891;47.242;8.648;2022-11-11T01:46:56;97713.69;;;10.84;100.00
54994;BME280;40891;47.242;8.648;2022-11-11T01:49:46;97714.16;;;10.79;100.00
54994;BME280;40891;47.242;8.648;2022-11-11T01:52:36;97720.41;;;10.86;100.00
54994;BME280;40891;47.242;8.648;2022-11-11T01:55:15;97723.19;;;10.86;100.00
54994;BME280;40891;47.242;8.648;2022-11-11T01:57:52;97720.88;;;10.81;100.00
54994;BME280;40891;47.242;8.648;2022-11-11T02:00:19;97725.03;;;10.70;100.00
54994;BME280;40891;47.242;8.648;2022-11-11T02:02:54;97721.59;;;10.62;100.00
54994;BME280;40891;47.242;8.648;2022-11-11T02:05:23;97725.13;;;10.63;100.00
54994;BME280;40891;47.242;8.648;2022-11-11T02:08:12;97728.28;;;10.65;100.00
54994;BME280;40891;47.242;8.648;2022-11-11T02:10:42;97725.56;;;10.61;100.00
54994;BME280;40891;47.242;8.648;2022-11-11T02:13:12;97729.75;;;10.46;100.00
54994;BME280;40891;47.242;8.648;2022-11-11T02:15:56;97733.69;;;10.49;100.00
54994;BME280;40891;47.242;8.648;2022-11-11T02:18:22;97723.63;;;10.58;100.00
54994;BME280;40891;47.242;8.648;2022-11-11T02:20:48;97728.78;;;10.60;100.00
54994;BME280;40891;47.242;8.648;2022-11-11T02:23:33;97729.94;;;10.62;100.00
54994;BME280;40891;47.242;8.648;2022-11-11T02:26:01;97739.94;;;10.56;100.00
54994;BME280;40891;47.242;8.648;2022-11-11T02:28:28;97744.69;;;10.59;100.00
54994;BME280;40891;47.242;8.648;2022-11-11T02:30:56;97750.28;;;10.56;100.00
54994;BME280;40891;47.242;8.648;2022-11-11T02:33:21;97760.75;;;10.45;100.00
54994;BME280;40891;47.242;8.648;2022-11-11T02:35:52;97750.47;;;10.42;100.00
54994;BME280;40891;47.242;8.648;2022-11-11T02:38:20;97760.88;;;10.38;100.00
54994;BME280;40891;47.242;8.648;2022-11-11T02:40:46;97759.28;;;10.37;100.00
54994;BME280;40891;47.242;8.648;2022-11-11T02:43:31;97773.69;;;10.28;100.00
54994;BME280;40891;47.242;8.648;2022-11-11T02:45:56;97776.09;;;10.26;100.00
54994;BME280;40891;47.242;8.648;2022-11-11T02:48:23;97787.56;;;10.32;100.00
54994;BME280;40891;47.242;8.648;2022-11-11T02:50:48;97785.53;;;10.32;100.00
54994;BME280;40891;47.242;8.648;2022-11-11T02:53:14;97787.16;;;10.30;100.00
54994;BME280;40891;47.242;8.648;2022-11-11T02:55:39;97789.59;;;10.27;100.00
54994;BME280;40891;47.242;8.648;2022-11-11T02:58:05;97795.19;;;10.24;100.00
54994;BME280;40891;47.242;8.648;2022-11-11T03:00:30;97798.38;;;10.22;100.00
54994;BME280;40891;47.242;8.648;2022-11-11T03:02:56;97798.47;;;10.15;100.00
54994;BME280;40891;47.242;8.648;2022-11-11T03:05:22;97796.94;;;10.07;100.00
54994;BME280;40891;47.242;8.648;2022-11-11T03:07:47;97800.13;;;10.06;100.00
54994;BME280;40891;47.242;8.648;2022-11-11T03:10:13;97811.25;;;10.06;100.00
54994;BME280;40891;47.242;8.648;2022-11-11T03:12:38;97822.41;;;10.02;100.00
54994;BME280;40891;47.242;8.648;2022-11-11T03:15:04;97819.22;;;10.04;100.00
54994;BME280;40891;47.242;8.648;2022-11-11T03:17:29;97815.25;;;10.05;100.00
54994;BME280;40891;47.242;8.648;2022-11-11T03:20:11;97823.22;;;10.03;100.00
54994;BME280;40891;47.242;8.648;2022-11-11T03:25:27;97827.53;;;10.04;100.00
54994;BME280;40891;47.242;8.648;2022-11-11T03:28:16;97834.63;;;10.08;100.00
54994;BME280;40891;47.242;8.648;2022-11-11T03:30:44;97838.97;;;10.13;100.00
54994;BME280;40891;47.242;8.648;2022-11-11T03:33:10;97842.56;;;10.13;100.00
54994;BME280;40891;47.242;8.648;2022-11-11T03:35:36;97838.59;;;10.14;100.00
54994;BME280;40891;47.242;8.648;2022-11-11T03:38:03;97843.78;;;10.12;100.00
54994;BME280;40891;47.242;8.648;2022-11-11T03:40:43;97837.34;;;10.19;100.00
54994;BME280;40891;47.242;8.648;2022-11-11T03:43:09;97847.38;;;10.43;100.00
54994;BME280;40891;47.242;8.648;2022-11-11T03:45:35;97836.38;;;10.33;100.00
54994;BME280;40891;47.242;8.648;2022-11-11T03:48:00;97841.13;;;10.36;100.00
54994;BME280;40891;47.242;8.648;2022-11-11T03:50:26;97840.38;;;10.32;100.00
54994;BME280;40891;47.242;8.648;2022-11-11T03:52:51;97857.00;;;10.35;100.00
54994;BME280;40891;47.242;8.648;2022-11-11T03:55:17;97847.84;;;10.38;100.00
54994;BME280;40891;47.242;8.648;2022-11-11T03:57:44;97855.34;;;10.41;100.00
54994;BME280;40891;47.242;8.648;2022-11-11T04:00:17;97848.91;;;10.48;100.00
54994;BME280;40891;47.242;8.648;2022-11-11T04:02:44;97843.34;;;10.48;100.00
54994;BME280;40891;47.242;8.648;2022-11-11T04:05:28;97843.06;;;10.39;100.00
54994;BME280;40891;47.242;8.648;2022-11-11T04:08:15;97854.94;;;10.43;100.00
54994;BME280;40891;47.242;8.648;2022-11-11T04:11:03;97858.91;;;10.42;100.00
54994;BME280;40891;47.242;8.648;2022-11-11T04:13:30;97849.84;;;10.34;100.00
54994;BME280;40891;47.242;8.648;2022-11-11T04:16:15;97848.25;;;10.37;100.00
54994;BME280;40891;47.242;8.648;2022-11-11T04:18:41;97854.69;;;10.30;100.00
54994;BME280;40891;47.242;8.648;2022-11-11T04:21:25;97863.00;;;10.30;100.00
54994;BME280;40891;47.242;8.648;2022-11-11T04:24:14;97866.59;;;10.31;100.00
54994;BME280;40891;47.242;8.648;2022-11-11T04:27:00;97859.34;;;10.37;100.00
54994;BME280;40891;47.242;8.648;2022-11-11T04:29:26;97864.25;;;10.29;100.00
54994;BME280;40891;47.242;8.648;2022-11-11T04:31:52;97875.19;;;10.43;100.00
54994;BME280;40891;47.242;8.648;2022-11-11T04:34:36;97861.06;;;10.27;100.00
54994;BME280;40891;47.242;8.648;2022-11-11T04:37:02;97865.78;;;10.30;100.00
54994;BME280;40891;47.242;8.648;2022-11-11T04:39:27;97866.25;;;10.25;100.00
54994;BME280;40891;47.242;8.648;2022-11-11T04:42:11;97869.47;;;10.20;100.00
54994;BME280;40891;47.242;8.648;2022-11-11T04:44:36;97875.34;;;10.29;100.00
54994;BME280;40891;47.242;8.648;2022-11-11T04:47:20;97870.56;;;10.30;100.00
54994;BME280;40891;47.242;8.648;2022-11-11T04:49:46;97871.34;;;10.30;100.00
54994;BME280;40891;47.242;8.648;2022-11-11T04:52:11;97880.84;;;10.36;100.00
54994;BME280;40891;47.242;8.648;2022-11-11T04:54:56;97872.56;;;10.29;100.00
54994;BME280;40891;47.242;8.648;2022-11-11T04:57:45;97875.28;;;10.36;100.00
54994;BME280;40891;47.242;8.648;2022-11-11T05:00:16;97875.66;;;10.38;100.00
54994;BME280;40891;47.242;8.648;2022-11-11T05:02:41;97874.94;;;10.27;100.00
54994;BME280;40891;47.242;8.648;2022-11-11T05:05:26;97876.53;;;10.32;100.00
54994;BME280;40891;47.242;8.648;2022-11-11T05:07:52;97878.97;;;10.22;100.00
54994;BME280;40891;47.242;8.648;2022-11-11T05:10:36;97876.91;;;10.30;100.00
54994;BME280;40891;47.242;8.648;2022-11-11T05:13:03;97877.78;;;10.23;100.00
54994;BME280;40891;47.242;8.648;2022-11-11T05:15:48;97873.84;;;10.21;100.00
54994;BME280;40891;47.242;8.648;2022-11-11T05:18:32;97861.47;;;10.25;100.00
54994;BME280;40891;47.242;8.648;2022-11-11T05:21:23;97859.97;;;10.17;100.00
54994;BME280;40891;47.242;8.648;2022-11-11T05:23:49;97855.25;;;10.14;100.00
54994;BME280;40891;47.242;8.648;2022-11-11T05:26:33;97856.44;;;10.17;100.00
54994;BME280;40891;47.242;8.648;2022-11-11T05:28:59;97857.25;;;10.14;100.00
54994;BME280;40891;47.242;8.648;2022-11-11T05:31:25;97845.75;;;10.12;100.00
54994;BME280;40891;47.242;8.648;2022-11-11T05:33:50;97852.81;;;10.20;100.00
54994;BME280;40891;47.242;8.648;2022-11-11T05:36:15;97862.78;;;10.10;100.00
54994;BME280;40891;47.242;8.648;2022-11-11T05:38:42;97857.25;;;10.14;100.00
54994;BME280;40891;47.242;8.648;2022-11-11T05:41:07;97863.22;;;10.09;100.00
54994;BME280;40891;47.242;8.648;2022-11-11T05:43:33;97868.34;;;10.10;100.00
54994;BME280;40891;47.242;8.648;2022-11-11T05:45:58;97865.59;;;10.14;100.00
54994;BME280;40891;47.242;8.648;2022-11-11T05:48:24;97858.03;;;10.11;100.00
54994;BME280;40891;47.242;8.648;2022-11-11T05:50:49;97860.50;;;10.05;100.00
54994;BME280;40891;47.242;8.648;2022-11-11T05:53:14;97861.72;;;10.01;100.00
54994;BME280;40891;47.242;8.648;2022-11-11T05:55:40;97869.22;;;10.04;100.00
54994;BME280;40891;47.242;8.648;2022-11-11T05:58:05;97871.97;;;10.07;100.00
54994;BME280;40891;47.242;8.648;2022-11-11T06:00:30;97864.41;;;10.11;100.00
54994;BME280;40891;47.242;8.648;2022-11-11T06:03:05;97866.44;;;10.04;100.00
54994;BME280;40891;47.242;8.648;2022-11-11T06:05:30;97867.66;;;10.03;100.00
54994;BME280;40891;47.242;8.648;2022-11-11T06:07:55;97866.75;;;10.16;100.00
54994;BME280;40891;47.242;8.648;2022-11-11T06:10:22;97869.97;;;10.11;100.00
54994;BME280;40891;47.242;8.648;2022-11-11T06:12:57;97861.63;;;10.15;100.00
54994;BME280;40891;47.242;8.648;2022-11-11T06:15:36;97866.00;;;10.09;100.00
54994;BME280;40891;47.242;8.648;2022-11-11T06:18:03;97871.63;;;10.02;100.00
54994;BME280;40891;47.242;8.648;2022-11-11T06:20:29;97877.53;;;10.07;100.00
54994;BME280;40891;47.242;8.648;2022-11-11T06:22:54;97885.09;;;10.07;100.00
54994;BME280;40891;47.242;8.648;2022-11-11T06:25:20;97887.38;;;10.19;100.00
54994;BME280;40891;47.242;8.648;2022-11-11T06:28:04;97896.88;;;10.21;100.00
54994;BME280;40891;47.242;8.648;2022-11-11T06:30:30;97909.22;;;10.17;100.00
54994;BME280;40891;47.242;8.648;2022-11-11T06:32:55;97915.16;;;10.19;100.00
54994;BME280;40891;47.242;8.648;2022-11-11T06:35:20;97922.69;;;10.22;100.00
54994;BME280;40891;47.242;8.648;2022-11-11T06:37:46;97935.41;;;10.19;100.00
54994;BME280;40891;47.242;8.648;2022-11-11T06:40:11;97936.88;;;10.31;100.00
54994;BME280;40891;47.242;8.648;2022-11-11T06:42:37;97946.84;;;10.29;100.00
54994;BME280;40891;47.242;8.648;2022-11-11T06:45:02;97957.59;;;10.23;100.00
54994;BME280;40891;47.242;8.648;2022-11-11T06:47:27;97954.88;;;10.19;100.00
54994;BME280;40891;47.242;8.648;2022-11-11T06:49:53;97951.28;;;10.19;100.00
54994;BME280;40891;47.242;8.648;2022-11-11T06:52:18;97959.63;;;10.19;100.00
54994;BME280;40891;47.242;8.648;2022-11-11T06:54:43;97963.97;;;10.20;100.00
54994;BME280;40891;47.242;8.648;2022-11-11T06:57:08;97953.28;;;10.18;100.00
54994;BME280;40891;47.242;8.648;2022-11-11T06:59:34;97954.44;;;10.21;100.00
54994;BME280;40891;47.242;8.648;2022-11-11T07:01:59;97958.81;;;10.22;99.52
54994;BME280;40891;47.242;8.648;2022-11-11T07:04:25;97969.59;;;10.16;99.52
54994;BME280;40891;47.242;8.648;2022-11-11T07:06:50;97973.09;;;10.20;97.95
54994;BME280;40891;47.242;8.648;2022-11-11T07:09:15;97971.47;;;10.27;96.82
54994;BME280;40891;47.242;8.648;2022-11-11T07:11:41;97970.38;;;10.17;97.59
54994;BME280;40891;47.242;8.648;2022-11-11T07:14:06;97977.81;;;10.27;98.02
54994;BME280;40891;47.242;8.648;2022-11-11T07:16:31;97974.59;;;10.32;98.16
54994;BME280;40891;47.242;8.648;2022-11-11T07:18:57;97983.75;;;10.29;98.47
54994;BME280;40891;47.242;8.648;2022-11-11T07:21:22;97989.00;;;10.20;99.30
54994;BME280;40891;47.242;8.648;2022-11-11T07:23:47;97987.22;;;10.40;98.65
54994;BME280;40891;47.242;8.648;2022-11-11T07:26:13;97991.19;;;10.43;98.80
54994;BME280;40891;47.242;8.648;2022-11-11T07:28:38;97990.81;;;10.37;99.76
54994;BME280;40891;47.242;8.648;2022-11-11T07:31:03;97995.44;;;10.54;97.31
54994;BME280;40891;47.242;8.648;2022-11-11T07:33:29;97999.97;;;10.75;97.10
54994;BME280;40891;47.242;8.648;2022-11-11T07:35:54;98003.63;;;10.68;96.67
54994;BME280;40891;47.242;8.648;2022-11-11T07:38:19;98005.66;;;10.64;97.91
54994;BME280;40891;47.242;8.648;2022-11-11T07:40:45;98009.03;;;10.82;97.62
54994;BME280;40891;47.242;8.648;2022-11-11T07:43:10;98012.63;;;11.13;94.91
54994;BME280;40891;47.242;8.648;2022-11-11T07:45:36;98021.34;;;11.19;96.05
54994;BME280;40891;47.242;8.648;2022-11-11T07:48:01;98012.53;;;11.24;95.04
54994;BME280;40891;47.242;8.648;2022-11-11T07:50:27;98010.22;;;11.45;93.76
54994;BME280;40891;47.242;8.648;2022-11-11T07:52:52;98021.94;;;11.63;93.52
54994;BME280;40891;47.242;8.648;2022-11-11T07:55:18;98015.81;;;11.76;93.80
54994;BME280;40891;47.242;8.648;2022-11-11T07:57:43;98029.09;;;11.91;91.35
54994;BME280;40891;47.242;8.648;2022-11-11T08:00:09;98028.19;;;11.98;89.74
54994;BME280;40891;47.242;8.648;2022-11-11T08:02:34;98029.31;;;12.04;89.82
54994;BME280;40891;47.242;8.648;2022-11-11T08:05:00;98032.72;;;12.15;89.16
54994;BME280;40891;47.242;8.648;2022-11-11T08:07:25;98037.97;;;12.09;89.01
54994;BME280;40891;47.242;8.648;2022-11-11T08:09:51;98035.63;;;12.31;87.45
54994;BME280;40891;47.242;8.648;2022-11-11T08:12:16;98027.03;;;12.45;85.92
54994;BME280;40891;47.242;8.648;2022-11-11T08:15:00;98025.56;;;12.60;84.69
54994;BME280;40891;47.242;8.648;2022-11-11T08:17:25;98027.31;;;12.74;84.31
54994;BME280;40891;47.242;8.648;2022-11-11T08:19:51;98019.03;;;12.90;82.17
54994;BME280;40891;47.242;8.648;2022-11-11T08:22:16;98016.50;;;13.74;77.68
54994;BME280;40891;47.242;8.648;2022-11-11T08:24:41;98009.50;;;14.50;73.18
54994;BME280;40891;47.242;8.648;2022-11-11T08:27:07;98013.03;;;14.83;72.18
54994;BME280;40891;47.242;8.648;2022-11-11T08:29:33;97997.38;;;16.18;67.55
54994;BME280;40891;47.242;8.648;2022-11-11T08:31:59;97989.47;;;16.64;66.19
54994;BME280;40891;47.242;8.648;2022-11-11T08:34:24;97976.56;;;18.14;58.04
54994;BME280;40891;47.242;8.648;2022-11-11T08:36:49;97980.56;;;17.95;57.13
54994;BME280;40891;47.242;8.648;2022-11-11T08:39:15;97977.28;;;17.97;57.75
54994;BME280;40891;47.242;8.648;2022-11-11T08:41:40;97984.34;;;17.71;58.17
54994;BME280;40891;47.242;8.648;2022-11-11T08:44:05;97985.41;;;17.64;57.67
54994;BME280;40891;47.242;8.648;2022-11-11T08:46:31;97988.28;;;17.30;57.97
54994;BME280;40891;47.242;8.648;2022-11-11T08:48:56;97983.84;;;17.20;58.35
54994;BME280;40891;47.242;8.648;2022-11-11T08:51:21;97990.28;;;16.86;58.90
54994;BME280;40891;47.242;8.648;2022-11-11T08:53:47;97990.63;;;16.54;61.71
54994;BME280;40891;47.242;8.648;2022-11-11T08:56:12;97992.09;;;16.58;62.68
54994;BME280;40891;47.242;8.648;2022-11-11T08:58:38;97989.47;;;16.64;62.83
54994;BME280;40891;47.242;8.648;2022-11-11T09:01:03;97985.09;;;17.19;59.83
54994;BME280;40891;47.242;8.648;2022-11-11T09:03:29;97980.22;;;18.33;55.55
54994;BME280;40891;47.242;8.648;2022-11-11T09:05:56;97969.56;;;19.82;51.45
54994;BME280;40891;47.242;8.648;2022-11-11T09:08:21;97972.84;;;20.79;48.53
54994;BME280;40891;47.242;8.648;2022-11-11T09:10:47;97963.00;;;21.13;47.22
54994;BME280;40891;47.242;8.648;2022-11-11T09:13:12;97964.78;;;21.25;46.45
54994;BME280;40891;47.242;8.648;2022-11-11T09:15:37;97964.59;;;21.28;46.28
54994;BME280;40891;47.242;8.648;2022-11-11T09:18:03;97974.88;;;20.55;48.30
54994;BME280;40891;47.242;8.648;2022-11-11T09:20:28;97970.78;;;20.32;49.84
54994;BME280;40891;47.242;8.648;2022-11-11T09:22:54;97971.53;;;20.00;49.62
54994;BME280;40891;47.242;8.648;2022-11-11T09:25:20;97977.59;;;19.75;50.38
54994;BME280;40891;47.242;8.648;2022-11-11T09:27:59;97978.59;;;18.99;53.16
54994;BME280;40891;47.242;8.648;2022-11-11T09:30:27;97980.81;;;18.19;54.25
54994;BME280;40891;47.242;8.648;2022-11-11T09:32:53;97987.09;;;17.40;59.43
54994;BME280;40891;47.242;8.648;2022-11-11T09:35:18;97982.81;;;17.26;58.28
54994;BME280;40891;47.242;8.648;2022-11-11T09:37:57;97987.91;;;16.63;60.51
54994;BME280;40891;47.242;8.648;2022-11-11T09:40:25;97984.16;;;16.06;62.32
54994;BME280;40891;47.242;8.648;2022-11-11T09:51:51;97996.31;;;14.79;69.57
54994;BME280;40891;47.242;8.648;2022-11-11T09:54:49;97994.97;;;14.55;69.86
54994;BME280;40891;47.242;8.648;2022-11-11T09:57:17;97989.63;;;14.61;70.37
54994;BME280;40891;47.242;8.648;2022-11-11T09:59:48;97992.88;;;15.17;66.95
54994;BME280;40891;47.242;8.648;2022-11-11T10:02:33;97976.56;;;16.88;60.86
54994;BME280;40891;47.242;8.648;2022-11-11T10:05:10;97963.63;;;18.35;55.70
54994;BME280;40891;47.242;8.648;2022-11-11T10:07:46;97960.47;;;19.78;49.41
54994;BME280;40891;47.242;8.648;2022-11-11T10:10:24;97949.31;;;20.73;46.36
54994;BME280;40891;47.242;8.648;2022-11-11T10:12:57;97946.97;;;20.71;45.83
54994;BME280;40891;47.242;8.648;2022-11-11T10:15:29;97943.91;;;20.84;45.79
54994;BME280;40891;47.242;8.648;2022-11-11T10:18:13;97933.47;;;21.72;43.71
54994;BME280;40891;47.242;8.648;2022-11-11T10:20:41;97928.41;;;21.47;43.59
54994;BME280;40891;47.242;8.648;2022-11-11T10:23:14;97925.50;;;22.05;41.78
54994;BME280;40891;47.242;8.648;2022-11-11T10:25:51;97923.50;;;21.91;41.54
54994;BME280;40891;47.242;8.648;2022-11-11T10:28:19;97919.31;;;21.87;42.97
54994;BME280;40891;47.242;8.648;2022-11-11T10:30:47;97913.91;;;22.58;40.48
54994;BME280;40891;47.242;8.648;2022-11-11T10:33:18;97909.66;;;23.91;38.80
54994;BME280;40891;47.242;8.648;2022-11-11T10:35:49;97904.97;;;23.88;38.53
54994;BME280;40891;47.242;8.648;2022-11-11T10:43:51;97895.47;;;24.33;38.13
54994;BME280;40891;47.242;8.648;2022-11-11T10:46:21;97887.00;;;23.71;38.80
54994;BME280;40891;47.242;8.648;2022-11-11T10:49:14;97876.53;;;24.73;36.53
54994;BME280;40891;47.242;8.648;2022-11-11T10:54:20;97883.44;;;23.76;39.31
54994;BME280;40891;47.242;8.648;2022-11-11T10:57:14;97882.53;;;24.32;38.25
54994;BME280;40891;47.242;8.648;2022-11-11T10:59:54;97881.06;;;24.06;39.09
54994;BME280;40891;47.242;8.648;2022-11-11T11:02:27;97880.81;;;24.46;38.69
54994;BME280;40891;47.242;8.648;2022-11-11T11:05:02;97882.16;;;23.77;38.42
54994;BME280;40891;47.242;8.648;2022-11-11T11:07:39;97873.03;;;23.36;40.18
54994;BME280;40891;47.242;8.648;2022-11-11T11:10:13;97875.50;;;22.57;42.60
54994;BME280;40891;47.242;8.648;2022-11-11T11:13:03;97879.56;;;22.36;42.92
54994;BME280;40891;47.242;8.648;2022-11-11T11:15:30;97866.09;;;22.91;41.02
54994;BME280;40891;47.242;8.648;2022-11-11T11:18:05;97871.59;;;23.46;40.75
54994;BME280;40891;47.242;8.648;2022-11-11T11:20:32;97870.03;;;24.13;38.60
54994;BME280;40891;47.242;8.648;2022-11-11T11:22:58;97873.19;;;23.53;39.07
54994;BME280;40891;47.242;8.648;2022-11-11T11:25:26;97872.25;;;23.67;40.15
54994;BME280;40891;47.242;8.648;2022-11-11T11:28:08;97864.59;;;23.47;41.09
54994;BME280;40891;47.242;8.648;2022-11-11T11:30:33;97862.47;;;23.68;40.47
54994;BME280;40891;47.242;8.648;2022-11-11T11:33:01;97853.94;;;22.85;41.78
54994;BME280;40891;47.242;8.648;2022-11-11T11:38:00;97853.94;;;23.11;40.88
54994;BME280;40891;47.242;8.648;2022-11-11T11:40:26;97855.25;;;22.64;43.27
54994;BME280;40891;47.242;8.648;2022-11-11T11:42:52;97860.88;;;22.44;41.73
54994;BME280;40891;47.242;8.648;2022-11-11T11:45:27;97861.41;;;21.88;44.28
54994;BME280;40891;47.242;8.648;2022-11-11T11:50:35;97855.47;;;22.06;43.81
54994;BME280;40891;47.242;8.648;2022-11-11T11:53:18;97852.19;;;21.93;43.72
54994;BME280;40891;47.242;8.648;2022-11-11T11:55:58;97859.06;;;20.84;46.44
54994;BME280;40891;47.242;8.648;2022-11-11T12:01:12;97846.84;;;21.65;43.58
54994;BME280;40891;47.242;8.648;2022-11-11T12:09:15;97837.75;;;21.91;43.68
54994;BME280;40891;47.242;8.648;2022-11-11T12:14:44;97830.00;;;21.91;43.84
54994;BME280;40891;47.242;8.648;2022-11-11T12:25:45;97836.63;;;22.43;42.36
54994;BME280;40891;47.242;8.648;2022-11-11T12:28:51;97832.09;;;21.91;44.43
54994;BME280;40891;47.242;8.648;2022-11-11T12:31:29;97824.91;;;22.10;43.64
54994;BME280;40891;47.242;8.648;2022-11-11T12:42:38;97820.75;;;23.23;40.84
54994;BME280;40891;47.242;8.648;2022-11-11T12:45:19;97815.88;;;23.23;40.90
54994;BME280;40891;47.242;8.648;2022-11-11T12:50:25;97825.59;;;22.05;43.48
54994;BME280;40891;47.242;8.648;2022-11-11T12:53:01;97820.06;;;22.16;43.21
54994;BME280;40891;47.242;8.648;2022-11-11T12:55:56;97819.75;;;21.59;44.08
54994;BME280;40891;47.242;8.648;2022-11-11T12:58:43;97823.06;;;20.99;45.70
54994;BME280;40891;47.242;8.648;2022-11-11T13:15:47;97850.06;;;18.65;53.85
54994;BME280;40891;47.242;8.648;2022-11-11T13:18:42;97842.41;;;18.66;53.60
54994;BME280;40891;47.242;8.648;2022-11-11T13:21:13;97842.44;;;19.17;51.93
54994;BME280;40891;47.242;8.648;2022-11-11T13:23:40;97834.66;;;19.12;51.99
54994;BME280;40891;47.242;8.648;2022-11-11T13:26:27;97843.78;;;18.97;52.06
54994;BME280;40891;47.242;8.648;2022-11-11T13:29:07;97841.03;;;19.12;51.65
54994;BME280;40891;47.242;8.648;2022-11-11T13:31:41;97833.78;;;18.60;53.82
54994;BME280;40891;47.242;8.648;2022-11-11T13:34:10;97843.47;;;18.32;55.28
54994;BME280;40891;47.242;8.648;2022-11-11T13:36:54;97848.13;;;18.08;55.59
54994;BME280;40891;47.242;8.648;2022-11-11T13:41:51;97845.03;;;18.24;54.95
54994;BME280;40891;47.242;8.648;2022-11-11T13:44:33;97849.25;;;18.38;53.77
54994;BME280;40891;47.242;8.648;2022-11-11T13:47:05;97840.03;;;18.55;53.60
54994;BME280;40891;47.242;8.648;2022-11-11T13:52:30;97837.22;;;18.55;54.51
54994;BME280;40891;47.242;8.648;2022-11-11T13:55:24;97833.91;;;18.29;55.14
54994;BME280;40891;47.242;8.648;2022-11-11T13:57:53;97833.47;;;18.31;54.89
54994;BME280;40891;47.242;8.648;2022-11-11T14:02:47;97840.16;;;18.06;56.32
54994;BME280;40891;47.242;8.648;2022-11-11T14:05:32;97841.84;;;17.95;56.51
54994;BME280;40891;47.242;8.648;2022-11-11T14:07:58;97846.03;;;17.72;57.58
54994;BME280;40891;47.242;8.648;2022-11-11T14:12:56;97838.47;;;18.45;55.36
54994;BME280;40891;47.242;8.648;2022-11-11T14:15:44;97838.56;;;19.05;53.19
54994;BME280;40891;47.242;8.648;2022-11-11T14:20:45;97826.97;;;20.87;47.11
54994;BME280;40891;47.242;8.648;2022-11-11T14:26:18;97837.78;;;20.12;48.66
54994;BME280;40891;47.242;8.648;2022-11-11T14:28:52;97847.84;;;19.47;50.59
54994;BME280;40891;47.242;8.648;2022-11-11T14:33:58;97848.72;;;17.94;56.38
54994;BME280;40891;47.242;8.648;2022-11-11T14:36:41;97850.13;;;17.49;58.38
54994;BME280;40891;47.242;8.648;2022-11-11T14:39:30;97860.63;;;16.96;60.12
54994;BME280;40891;47.242;8.648;2022-11-11T14:41:57;97860.09;;;16.46;62.58
54994;BME280;40891;47.242;8.648;2022-11-11T14:55:03;97854.31;;;15.05;71.28
54994;BME280;40891;47.242;8.648;2022-11-11T14:57:38;97858.97;;;14.70;72.62